Taiseimaru — JL6483 — position and weather

sailwx.info

Track history (hours):
 
Tides and Currents Weather Stations Pressure Air Temp Water Temp Dewpoint Dewpoint Depression Visibility Wind Speed Wind Dir Waves Ship Positions

Taiseimaru

Last reported at 2014-Dec-13 22:31 UTC. Time now 2014-Dec-19 21:08 UTC.
Position N 35°05' E 139°44'.

Length 84 m; draft 4.7 m.

Type: Cargo ship. MMSI: 431500568.

Date/timePositionNaut miles runAvg speedWind from/ knotsBaromVisibWave heightAir tempDewpointWater temp
2014-Dec-13 22:31N 35°05' E 139°44'23 5.4
2014-Dec-13 18:13N 35°28' E 139°42'0 0.0
2014-Dec-13 17:31N 35°28' E 139°42'0 0.0
2014-Dec-13 16:31N 35°28' E 139°42'0 0.0
2014-Dec-13 15:28N 35°28' E 139°42'0 0.0
2014-Dec-13 14:28N 35°28' E 139°42'0 0.0
2014-Dec-13 13:28N 35°28' E 139°42'0 0.0
2014-Dec-13 12:31N 35°28' E 139°42'0 0.0
2014-Dec-13 11:28N 35°28' E 139°42'0 0.0
2014-Dec-13 10:28N 35°28' E 139°42'0 0.0
2014-Dec-13 09:22N 35°28' E 139°42'0 0.0
2014-Dec-13 08:28N 35°28' E 139°42'0 0.0
2014-Dec-13 07:28N 35°28' E 139°42'0 0.0
2014-Dec-13 06:34N 35°28' E 139°42'0 0.0
2014-Dec-13 05:33N 35°28' E 139°42'0 0.0
2014-Dec-13 04:33N 35°28' E 139°42'0 0.0
2014-Dec-13 03:33N 35°28' E 139°42'0 0.0
2014-Dec-13 02:33N 35°28' E 139°42'0 0.0
2014-Dec-13 01:33N 35°28' E 139°42'0 0.0
2014-Dec-13 00:33N 35°28' E 139°42'0 0.0
2014-Dec-12 23:33N 35°28' E 139°42'0 0.0
2014-Dec-12 22:33N 35°28' E 139°42'0 0.0
2014-Dec-12 21:33N 35°28' E 139°42'0 0.0
2014-Dec-12 20:33N 35°28' E 139°42'0 0.0
2014-Dec-12 19:33N 35°28' E 139°42'0 0.0
2014-Dec-12 18:33N 35°28' E 139°42'0 0.0
2014-Dec-12 17:33N 35°28' E 139°42'0 0.0
2014-Dec-12 16:33N 35°28' E 139°42'0 0.0
2014-Dec-12 15:33N 35°28' E 139°42'0 0.0
2014-Dec-12 14:33N 35°28' E 139°42'0 0.0
2014-Dec-12 13:33N 35°28' E 139°42'0 0.0
2014-Dec-12 12:33N 35°28' E 139°42'0 0.0
2014-Dec-12 11:33N 35°28' E 139°42'0 0.0
2014-Dec-12 10:33N 35°28' E 139°42'0 0.0
2014-Dec-12 09:33N 35°28' E 139°42'0 0.0
2014-Dec-12 08:33N 35°28' E 139°42'0 0.0
2014-Dec-12 07:33N 35°28' E 139°42'0 0.0
2014-Dec-12 06:30N 35°28' E 139°42'0 0.0
2014-Dec-12 05:27N 35°28' E 139°42'0 0.0
2014-Dec-12 04:33N 35°28' E 139°42'0 0.0
2014-Dec-12 03:33N 35°28' E 139°42'0 0.0
2014-Dec-12 02:33N 35°28' E 139°42'0 0.0
2014-Dec-12 01:33N 35°28' E 139°42'0 0.0
2014-Dec-12 00:33N 35°28' E 139°42'0 0.0
2014-Dec-11 23:33N 35°28' E 139°42'4 4.1
2014-Dec-11 22:34N 35°25' E 139°45'1 0.7
2014-Dec-11 21:30N 35°24' E 139°45'0 0.1
2014-Dec-11 20:33N 35°24' E 139°45'0 0.1
2014-Dec-11 19:33N 35°24' E 139°45'0 0.0
2014-Dec-11 18:33N 35°24' E 139°45'0 0.0
2014-Dec-11 17:33N 35°24' E 139°45'0 0.0
2014-Dec-11 16:30N 35°24' E 139°45'0 0.1
2014-Dec-11 15:33N 35°24' E 139°45'0 0.0
2014-Dec-11 14:17N 35°24' E 139°45'0 0.1
2014-Dec-11 13:26N 35°24' E 139°45'0 0.0
2014-Dec-11 12:32N 35°24' E 139°45'0 0.0
2014-Dec-11 11:29N 35°24' E 139°45'0 0.0
2014-Dec-11 10:29N 35°24' E 139°45'0 0.0
2014-Dec-11 09:32N 35°24' E 139°45'0 0.0
2014-Dec-11 08:32N 35°24' E 139°45'0 0.0
2014-Dec-11 07:32N 35°24' E 139°45'0 0.1
2014-Dec-11 06:34N 35°24' E 139°46'0 0.1
2014-Dec-11 05:33N 35°24' E 139°45'0 0.0
2014-Dec-11 04:33N 35°24' E 139°46'0 0.0
2014-Dec-11 03:32N 35°24' E 139°45'0 0.0
2014-Dec-11 02:29N 35°24' E 139°45'0 0.0
2014-Dec-11 01:32N 35°24' E 139°45'0 0.0
2014-Dec-11 00:29N 35°24' E 139°45'0 0.0
2014-Dec-10 18:17N 35°24' E 139°45'0 0.1
2014-Dec-10 17:32N 35°24' E 139°45'0 0.1
2014-Dec-10 16:29N 35°24' E 139°45'0 0.0
2014-Dec-10 15:26N 35°24' E 139°45'0 0.0
2014-Dec-10 14:29N 35°24' E 139°45'0 0.1
2014-Dec-10 13:32N 35°24' E 139°45'0 0.0
2014-Dec-10 12:29N 35°24' E 139°45'0 0.0
2014-Dec-10 11:26N 35°24' E 139°45'0 0.0
2014-Dec-10 10:26N 35°24' E 139°45'1 0.7
2014-Dec-10 09:33N 35°25' E 139°45'6 5.7
2014-Dec-10 08:28N 35°29' E 139°39'0 0.0
2014-Dec-10 07:31N 35°29' E 139°39'0 0.0
2014-Dec-10 06:31N 35°29' E 139°39'0 0.0
2014-Dec-10 05:31N 35°29' E 139°39'0 0.0
2014-Dec-10 04:31N 35°29' E 139°39'0 0.0
2014-Dec-10 03:31N 35°29' E 139°39'0 0.0
2014-Dec-10 02:31N 35°29' E 139°39'0 0.0
2014-Dec-10 01:31N 35°29' E 139°39'0 0.0
2014-Dec-10 00:31N 35°29' E 139°39'0 0.0
2014-Dec-09 23:31N 35°29' E 139°39'2 2.0
2014-Dec-09 22:33N 35°27' E 139°41'5 4.8
2014-Dec-09 21:31N 35°24' E 139°45'0 0.0
2014-Dec-09 20:31N 35°24' E 139°45'0 0.0
2014-Dec-09 19:28N 35°24' E 139°45'0 0.0
2014-Dec-09 18:31N 35°24' E 139°45'0 0.1
2014-Dec-09 17:31N 35°24' E 139°45'0 0.0
2014-Dec-09 16:31N 35°24' E 139°45'0 0.0
2014-Dec-09 15:31N 35°24' E 139°45'0 0.0
2014-Dec-09 14:31N 35°24' E 139°45'0 0.0
2014-Dec-09 13:28N 35°24' E 139°45'0 0.0
2014-Dec-09 12:31N 35°24' E 139°45'0 0.0
2014-Dec-09 11:31N 35°24' E 139°45'0 0.0
2014-Dec-09 10:31N 35°24' E 139°45'0 0.0
2014-Dec-09 09:31N 35°24' E 139°45'0 0.0
2014-Dec-09 08:31N 35°24' E 139°45'0 0.0
2014-Dec-09 07:31N 35°24' E 139°45'0 0.1
2014-Dec-09 06:31N 35°24' E 139°45'0 0.0
2014-Dec-09 05:31N 35°24' E 139°45'0 0.0
2014-Dec-09 04:31N 35°24' E 139°45'0 0.0
2014-Dec-09 03:25N 35°24' E 139°45'0 0.0
2014-Dec-09 02:31N 35°24' E 139°45'0 0.0
2014-Dec-09 01:33N 35°24' E 139°45'0 0.0
2014-Dec-09 00:30N 35°24' E 139°45'0 0.0
2014-Dec-08 23:33N 35°24' E 139°45'0 0.0
2014-Dec-08 22:33N 35°24' E 139°45'0 0.0
2014-Dec-08 21:33N 35°24' E 139°45'0 0.0
2014-Dec-08 20:30N 35°24' E 139°45'0 0.0
2014-Dec-08 19:30N 35°24' E 139°45'0 0.0
2014-Dec-08 18:33N 35°24' E 139°45'0 0.0
2014-Dec-08 17:33N 35°24' E 139°45'0 0.0
2014-Dec-08 16:33N 35°24' E 139°45'0 0.0
2014-Dec-08 15:33N 35°24' E 139°45'0 0.0
2014-Dec-08 14:33N 35°24' E 139°45'0 0.0
2014-Dec-08 13:33N 35°24' E 139°45'0 0.0
2014-Dec-08 12:33N 35°24' E 139°45'0 0.0
2014-Dec-08 11:33N 35°24' E 139°45'0 0.0
2014-Dec-08 10:33N 35°24' E 139°45'0 0.0
2014-Dec-08 09:33N 35°24' E 139°45'0 0.0
2014-Dec-08 08:33N 35°24' E 139°45'0 0.0
2014-Dec-08 07:33N 35°24' E 139°45'0 0.0
2014-Dec-08 06:33N 35°24' E 139°45'0 0.0
2014-Dec-08 05:33N 35°24' E 139°45'0 0.0
2014-Dec-08 04:33N 35°24' E 139°45'0 0.0
2014-Dec-08 03:33N 35°24' E 139°45'0 0.0
2014-Dec-08 02:33N 35°24' E 139°45'0 0.0
2014-Dec-08 01:33N 35°24' E 139°45'0 0.0
2014-Dec-08 00:33N 35°24' E 139°45'0 0.0
2014-Dec-07 23:33N 35°24' E 139°45'0 0.0
2014-Dec-07 22:33N 35°24' E 139°45'0 0.0
2014-Dec-07 21:33N 35°24' E 139°45'0 0.0
2014-Dec-07 20:33N 35°24' E 139°45'0 0.0
2014-Dec-07 19:33N 35°24' E 139°45'0 0.0
2014-Dec-07 18:33N 35°24' E 139°45'0 0.0
2014-Dec-07 17:33N 35°24' E 139°45'0 0.0
2014-Dec-07 16:33N 35°24' E 139°45'0 0.1
2014-Dec-07 15:33N 35°24' E 139°45'0 0.0
2014-Dec-07 14:32N 35°24' E 139°45'0 0.0
2014-Dec-07 13:32N 35°24' E 139°45'0 0.0
2014-Dec-07 12:32N 35°24' E 139°45'0 0.0
2014-Dec-07 11:32N 35°24' E 139°45'0 0.0
2014-Dec-07 10:32N 35°24' E 139°45'0 0.0
2014-Dec-07 09:32N 35°24' E 139°45'0 0.0
2014-Dec-07 08:32N 35°24' E 139°45'0 0.0
2014-Dec-07 07:32N 35°24' E 139°45'0 0.0
2014-Dec-07 06:32N 35°24' E 139°45'0 0.0
2014-Dec-07 05:32N 35°24' E 139°45'0 0.0
2014-Dec-07 04:32N 35°24' E 139°45'0 0.0
2014-Dec-07 03:32N 35°24' E 139°45'0 0.0
2014-Dec-07 02:32N 35°24' E 139°45'0 0.0
2014-Dec-07 01:32N 35°24' E 139°45'0 0.0
2014-Dec-07 00:32N 35°24' E 139°45'0 0.0
2014-Dec-06 23:32N 35°24' E 139°45'7 6.8
2014-Dec-06 22:34N 35°17' E 139°45'  
Track history (hours):
 
Tides and Currents Weather Stations Pressure Air Temp Water Temp Dewpoint Dewpoint Depression Visibility Wind Speed Wind Dir Waves Ship Positions

Taiseimaru

Last reported at 2014-Dec-13 22:31 UTC. Time now 2014-Dec-19 21:08 UTC.
Position N 35°05' E 139°44'.

Length 84 m; draft 4.7 m.

Type: Cargo ship. MMSI: 431500568.

Date/timePositionNaut miles runAvg speedWind from/ knotsBaromVisibWave heightAir tempDewpointWater temp
2014-Dec-13 22:31N 35°05' E 139°44'23 5.4
2014-Dec-13 18:13N 35°28' E 139°42'0 0.0
2014-Dec-13 17:31N 35°28' E 139°42'0 0.0
2014-Dec-13 16:31N 35°28' E 139°42'0 0.0
2014-Dec-13 15:28N 35°28' E 139°42'0 0.0
2014-Dec-13 14:28N 35°28' E 139°42'0 0.0
2014-Dec-13 13:28N 35°28' E 139°42'0 0.0
2014-Dec-13 12:31N 35°28' E 139°42'0 0.0
2014-Dec-13 11:28N 35°28' E 139°42'0 0.0
2014-Dec-13 10:28N 35°28' E 139°42'0 0.0
2014-Dec-13 09:22N 35°28' E 139°42'0 0.0
2014-Dec-13 08:28N 35°28' E 139°42'0 0.0
2014-Dec-13 07:28N 35°28' E 139°42'0 0.0
2014-Dec-13 06:34N 35°28' E 139°42'0 0.0
2014-Dec-13 05:33N 35°28' E 139°42'0 0.0
2014-Dec-13 04:33N 35°28' E 139°42'0 0.0
2014-Dec-13 03:33N 35°28' E 139°42'0 0.0
2014-Dec-13 02:33N 35°28' E 139°42'0 0.0
2014-Dec-13 01:33N 35°28' E 139°42'0 0.0
2014-Dec-13 00:33N 35°28' E 139°42'0 0.0
2014-Dec-12 23:33N 35°28' E 139°42'0 0.0
2014-Dec-12 22:33N 35°28' E 139°42'0 0.0
2014-Dec-12 21:33N 35°28' E 139°42'0 0.0
2014-Dec-12 20:33N 35°28' E 139°42'0 0.0
2014-Dec-12 19:33N 35°28' E 139°42'0 0.0
2014-Dec-12 18:33N 35°28' E 139°42'0 0.0
2014-Dec-12 17:33N 35°28' E 139°42'0 0.0
2014-Dec-12 16:33N 35°28' E 139°42'0 0.0
2014-Dec-12 15:33N 35°28' E 139°42'0 0.0
2014-Dec-12 14:33N 35°28' E 139°42'0 0.0
2014-Dec-12 13:33N 35°28' E 139°42'0 0.0
2014-Dec-12 12:33N 35°28' E 139°42'0 0.0
2014-Dec-12 11:33N 35°28' E 139°42'0 0.0
2014-Dec-12 10:33N 35°28' E 139°42'0 0.0
2014-Dec-12 09:33N 35°28' E 139°42'0 0.0
2014-Dec-12 08:33N 35°28' E 139°42'0 0.0
2014-Dec-12 07:33N 35°28' E 139°42'0 0.0
2014-Dec-12 06:30N 35°28' E 139°42'0 0.0
2014-Dec-12 05:27N 35°28' E 139°42'0 0.0
2014-Dec-12 04:33N 35°28' E 139°42'0 0.0
2014-Dec-12 03:33N 35°28' E 139°42'0 0.0
2014-Dec-12 02:33N 35°28' E 139°42'0 0.0
2014-Dec-12 01:33N 35°28' E 139°42'0 0.0
2014-Dec-12 00:33N 35°28' E 139°42'0 0.0
2014-Dec-11 23:33N 35°28' E 139°42'4 4.1
2014-Dec-11 22:34N 35°25' E 139°45'1 0.7
2014-Dec-11 21:30N 35°24' E 139°45'0 0.1
2014-Dec-11 20:33N 35°24' E 139°45'0 0.1
2014-Dec-11 19:33N 35°24' E 139°45'0 0.0
2014-Dec-11 18:33N 35°24' E 139°45'0 0.0
2014-Dec-11 17:33N 35°24' E 139°45'0 0.0
2014-Dec-11 16:30N 35°24' E 139°45'0 0.1
2014-Dec-11 15:33N 35°24' E 139°45'0 0.0
2014-Dec-11 14:17N 35°24' E 139°45'0 0.1
2014-Dec-11 13:26N 35°24' E 139°45'0 0.0
2014-Dec-11 12:32N 35°24' E 139°45'0 0.0
2014-Dec-11 11:29N 35°24' E 139°45'0 0.0
2014-Dec-11 10:29N 35°24' E 139°45'0 0.0
2014-Dec-11 09:32N 35°24' E 139°45'0 0.0
2014-Dec-11 08:32N 35°24' E 139°45'0 0.0
2014-Dec-11 07:32N 35°24' E 139°45'0 0.1
2014-Dec-11 06:34N 35°24' E 139°46'0 0.1
2014-Dec-11 05:33N 35°24' E 139°45'0 0.0
2014-Dec-11 04:33N 35°24' E 139°46'0 0.0
2014-Dec-11 03:32N 35°24' E 139°45'0 0.0
2014-Dec-11 02:29N 35°24' E 139°45'0 0.0
2014-Dec-11 01:32N 35°24' E 139°45'0 0.0
2014-Dec-11 00:29N 35°24' E 139°45'0 0.0
2014-Dec-10 18:17N 35°24' E 139°45'0 0.1
2014-Dec-10 17:32N 35°24' E 139°45'0 0.1
2014-Dec-10 16:29N 35°24' E 139°45'0 0.0
2014-Dec-10 15:26N 35°24' E 139°45'0 0.0
2014-Dec-10 14:29N 35°24' E 139°45'0 0.1
2014-Dec-10 13:32N 35°24' E 139°45'0 0.0
2014-Dec-10 12:29N 35°24' E 139°45'0 0.0
2014-Dec-10 11:26N 35°24' E 139°45'0 0.0
2014-Dec-10 10:26N 35°24' E 139°45'1 0.7
2014-Dec-10 09:33N 35°25' E 139°45'6 5.7
2014-Dec-10 08:28N 35°29' E 139°39'0 0.0
2014-Dec-10 07:31N 35°29' E 139°39'0 0.0
2014-Dec-10 06:31N 35°29' E 139°39'0 0.0
2014-Dec-10 05:31N 35°29' E 139°39'0 0.0
2014-Dec-10 04:31N 35°29' E 139°39'0 0.0
2014-Dec-10 03:31N 35°29' E 139°39'0 0.0
2014-Dec-10 02:31N 35°29' E 139°39'0 0.0
2014-Dec-10 01:31N 35°29' E 139°39'0 0.0
2014-Dec-10 00:31N 35°29' E 139°39'0 0.0
2014-Dec-09 23:31N 35°29' E 139°39'2 2.0
2014-Dec-09 22:33N 35°27' E 139°41'5 4.8
2014-Dec-09 21:31N 35°24' E 139°45'0 0.0
2014-Dec-09 20:31N 35°24' E 139°45'0 0.0
2014-Dec-09 19:28N 35°24' E 139°45'0 0.0
2014-Dec-09 18:31N 35°24' E 139°45'0 0.1
2014-Dec-09 17:31N 35°24' E 139°45'0 0.0
2014-Dec-09 16:31N 35°24' E 139°45'0 0.0
2014-Dec-09 15:31N 35°24' E 139°45'0 0.0
2014-Dec-09 14:31N 35°24' E 139°45'0 0.0
2014-Dec-09 13:28N 35°24' E 139°45'0 0.0
2014-Dec-09 12:31N 35°24' E 139°45'0 0.0
2014-Dec-09 11:31N 35°24' E 139°45'0 0.0
2014-Dec-09 10:31N 35°24' E 139°45'0 0.0
2014-Dec-09 09:31N 35°24' E 139°45'0 0.0
2014-Dec-09 08:31N 35°24' E 139°45'0 0.0
2014-Dec-09 07:31N 35°24' E 139°45'0 0.1
2014-Dec-09 06:31N 35°24' E 139°45'0 0.0
2014-Dec-09 05:31N 35°24' E 139°45'0 0.0
2014-Dec-09 04:31N 35°24' E 139°45'0 0.0
2014-Dec-09 03:25N 35°24' E 139°45'0 0.0
2014-Dec-09 02:31N 35°24' E 139°45'0 0.0
2014-Dec-09 01:33N 35°24' E 139°45'0 0.0
2014-Dec-09 00:30N 35°24' E 139°45'0 0.0
2014-Dec-08 23:33N 35°24' E 139°45'0 0.0
2014-Dec-08 22:33N 35°24' E 139°45'0 0.0
2014-Dec-08 21:33N 35°24' E 139°45'0 0.0
2014-Dec-08 20:30N 35°24' E 139°45'0 0.0
2014-Dec-08 19:30N 35°24' E 139°45'0 0.0
2014-Dec-08 18:33N 35°24' E 139°45'0 0.0
2014-Dec-08 17:33N 35°24' E 139°45'0 0.0
2014-Dec-08 16:33N 35°24' E 139°45'0 0.0
2014-Dec-08 15:33N 35°24' E 139°45'0 0.0
2014-Dec-08 14:33N 35°24' E 139°45'0 0.0
2014-Dec-08 13:33N 35°24' E 139°45'0 0.0
2014-Dec-08 12:33N 35°24' E 139°45'0 0.0
2014-Dec-08 11:33N 35°24' E 139°45'0 0.0
2014-Dec-08 10:33N 35°24' E 139°45'0 0.0
2014-Dec-08 09:33N 35°24' E 139°45'0 0.0
2014-Dec-08 08:33N 35°24' E 139°45'0 0.0
2014-Dec-08 07:33N 35°24' E 139°45'0 0.0
2014-Dec-08 06:33N 35°24' E 139°45'0 0.0
2014-Dec-08 05:33N 35°24' E 139°45'0 0.0
2014-Dec-08 04:33N 35°24' E 139°45'0 0.0
2014-Dec-08 03:33N 35°24' E 139°45'0 0.0
2014-Dec-08 02:33N 35°24' E 139°45'0 0.0
2014-Dec-08 01:33N 35°24' E 139°45'0 0.0
2014-Dec-08 00:33N 35°24' E 139°45'0 0.0
2014-Dec-07 23:33N 35°24' E 139°45'0 0.0
2014-Dec-07 22:33N 35°24' E 139°45'0 0.0
2014-Dec-07 21:33N 35°24' E 139°45'0 0.0
2014-Dec-07 20:33N 35°24' E 139°45'0 0.0
2014-Dec-07 19:33N 35°24' E 139°45'0 0.0
2014-Dec-07 18:33N 35°24' E 139°45'0 0.0
2014-Dec-07 17:33N 35°24' E 139°45'0 0.0
2014-Dec-07 16:33N 35°24' E 139°45'0 0.1
2014-Dec-07 15:33N 35°24' E 139°45'0 0.0
2014-Dec-07 14:32N 35°24' E 139°45'0 0.0
2014-Dec-07 13:32N 35°24' E 139°45'0 0.0
2014-Dec-07 12:32N 35°24' E 139°45'0 0.0
2014-Dec-07 11:32N 35°24' E 139°45'0 0.0
2014-Dec-07 10:32N 35°24' E 139°45'0 0.0
2014-Dec-07 09:32N 35°24' E 139°45'0 0.0
2014-Dec-07 08:32N 35°24' E 139°45'0 0.0
2014-Dec-07 07:32N 35°24' E 139°45'0 0.0
2014-Dec-07 06:32N 35°24' E 139°45'0 0.0
2014-Dec-07 05:32N 35°24' E 139°45'0 0.0
2014-Dec-07 04:32N 35°24' E 139°45'0 0.0
2014-Dec-07 03:32N 35°24' E 139°45'0 0.0
2014-Dec-07 02:32N 35°24' E 139°45'0 0.0
2014-Dec-07 01:32N 35°24' E 139°45'0 0.0
2014-Dec-07 00:32N 35°24' E 139°45'0 0.0
2014-Dec-06 23:32N 35°24' E 139°45'7 6.8
2014-Dec-06 22:34N 35°17' E 139°45'  

Dump ship's entire track history